Time;durP1;ratioP1;P1;durP2;ratioP2;P2;SDS_P1;SDS_P2;PMS_P1;PMS_P2;Temp;Humidity;BMP_temperature;BMP_pressure;BME280_temperature;BME280_humidity;BME280_pressure;Samples;Min_cycle;Max_cycle;Signal;HPM_P1;HPM_P2
2023/02/05 00:02:17;;;;;;;13.88;7.35;;;-1.10;99.90;;;-2.85;100.00;102997.13;5002502;28;20069;-71
2023/02/05 00:04:42;;;;;;;14.00;8.25;;;-1.10;99.90;;;-2.83;100.00;102984.56;5001696;28;20093;-71
2023/02/05 00:07:08;;;;;;;13.02;7.28;;;-1.10;99.90;;;-2.77;100.00;102986.09;5007796;28;20076;-71
2023/02/05 00:09:35;;;;;;;11.95;7.38;;;-1.10;99.90;;;-2.71;100.00;102983.13;5004089;28;20481;-71
2023/02/05 00:12:01;;;;;;;12.17;7.10;;;-1.00;99.90;;;-2.68;100.00;102982.09;5004989;28;20037;-71
2023/02/05 00:14:27;;;;;;;12.70;7.03;;;-1.00;99.90;;;-2.65;100.00;102976.63;5006788;28;20069;-71
2023/02/05 00:16:53;;;;;;;10.15;6.20;;;-0.90;99.90;;;-2.67;100.00;102976.69;4993245;28;20061;-71
2023/02/05 00:19:19;;;;;;;11.80;7.50;;;-0.90;99.90;;;-2.76;100.00;102982.50;4999231;28;20042;-71
2023/02/05 00:21:45;;;;;;;11.35;6.05;;;-1.00;99.90;;;-2.77;100.00;102976.25;5002085;28;20050;-71
2023/02/05 00:24:11;;;;;;;10.32;5.90;;;-1.00;99.90;;;-2.81;100.00;102976.47;5004398;28;20034;-71
2023/02/05 00:26:37;;;;;;;9.93;5.97;;;-1.00;99.90;;;-2.85;100.00;102977.53;5001284;28;20030;-71
2023/02/05 00:29:03;;;;;;;13.52;6.53;;;-1.10;99.90;;;-2.85;100.00;102978.44;5008106;28;20033;-71
2023/02/05 00:31:29;;;;;;;14.25;6.05;;;-1.10;99.90;;;-2.76;100.00;102978.00;5010096;28;20034;-72
2023/02/05 00:33:55;;;;;;;10.63;5.82;;;-1.10;99.90;;;-2.68;100.00;102969.63;5017146;28;20128;-71
2023/02/05 00:36:22;;;;;;;12.05;6.18;;;-1.00;99.90;;;-2.59;100.00;102976.34;5019815;28;20041;-71
2023/02/05 00:38:50;;;;;;;9.95;5.57;;;-0.90;99.90;;;-2.61;100.00;102970.19;4988158;28;20089;-71
2023/02/05 00:41:17;;;;;;;12.98;6.15;;;-0.90;99.90;;;-2.63;100.00;102969.41;5009682;28;20409;-71
2023/02/05 00:43:44;;;;;;;11.60;5.53;;;-0.90;99.90;;;-2.64;100.00;102959.66;4999062;28;20479;-71
2023/02/05 00:46:12;;;;;;;10.30;5.53;;;-0.90;99.90;;;-2.61;100.00;102951.50;4997947;28;20121;-71
2023/02/05 00:48:39;;;;;;;9.93;5.60;;;-0.90;99.90;;;-2.63;100.00;102945.34;5006792;28;20034;-71
2023/02/05 00:51:08;;;;;;;10.13;5.50;;;-0.90;99.90;;;-2.67;100.00;102946.41;4999925;28;20065;-71
2023/02/05 00:53:33;;;;;;;12.23;5.68;;;-0.90;99.90;;;-2.77;100.00;102944.19;5005665;28;20046;-71
2023/02/05 00:55:59;;;;;;;11.60;5.75;;;-1.00;99.90;;;-2.87;100.00;102934.88;5002425;28;20390;-71
2023/02/05 00:58:25;;;;;;;9.35;5.70;;;-1.10;99.90;;;-3.01;100.00;102923.97;4988058;28;20034;-71
2023/02/05 01:00:51;;;;;;;9.52;6.00;;;-1.20;99.90;;;-3.10;100.00;102926.13;5010426;28;20042;-71
2023/02/05 01:03:18;;;;;;;9.27;5.22;;;-1.30;99.90;;;-3.10;100.00;102915.47;5012867;28;20045;-71
2023/02/05 01:05:45;;;;;;;12.23;5.90;;;-1.30;99.90;;;-2.98;100.00;102907.78;5002970;28;20050;-71
2023/02/05 01:08:12;;;;;;;10.80;6.00;;;-1.30;99.90;;;-2.86;100.00;102907.22;5006411;28;20042;-71
2023/02/05 01:10:44;;;;;;;10.20;5.25;;;-1.10;99.90;;;-2.80;100.00;102906.06;5005071;28;20041;-71
2023/02/05 01:13:10;;;;;;;9.70;5.47;;;-1.10;99.90;;;-2.76;100.00;102910.34;5011368;28;20030;-71
2023/02/05 01:15:36;;;;;;;7.85;5.18;;;-1.00;99.90;;;-2.76;100.00;102900.50;5008669;28;20049;-71
2023/02/05 01:18:02;;;;;;;10.77;5.50;;;-1.00;99.90;;;-2.73;100.00;102901.28;4999086;28;20057;-70
2023/02/05 01:20:28;;;;;;;10.18;5.47;;;-1.00;99.90;;;-2.73;100.00;102888.81;5009229;28;20069;-71
2023/02/05 01:22:55;;;;;;;10.27;5.57;;;-1.00;99.90;;;-2.69;100.00;102882.38;5007839;28;20382;-70
2023/02/05 01:25:21;;;;;;;10.07;5.03;;;-0.90;99.90;;;-2.62;100.00;102878.44;5004101;28;20038;-70
2023/02/05 01:27:47;;;;;;;9.48;5.63;;;-0.90;99.90;;;-2.61;100.00;102869.47;5008984;28;20033;-70
2023/02/05 01:30:14;;;;;;;9.65;5.53;;;-0.80;99.90;;;-2.69;100.00;102870.78;5000513;28;20042;-70
2023/02/05 01:32:40;;;;;;;9.65;5.43;;;-0.90;99.90;;;-2.77;100.00;102863.19;5005618;28;20143;-70
2023/02/05 01:35:07;;;;;;;9.93;5.53;;;-1.00;99.90;;;-2.83;100.00;102852.75;5003261;28;20030;-70
2023/02/05 01:37:33;;;;;;;8.68;5.55;;;-1.00;99.90;;;-2.79;100.00;102841.84;5002358;28;20553;-70
2023/02/05 01:39:59;;;;;;;12.43;6.68;;;-1.10;99.90;;;-2.78;100.00;102859.63;4998952;28;20176;-70
2023/02/05 01:42:29;;;;;;;9.55;5.78;;;-1.00;99.90;;;-2.73;100.00;102855.84;4999385;28;20030;-70
2023/02/05 01:45:23;;;;;;;15.32;6.10;;;-1.00;99.90;;;-2.71;100.00;102857.53;5020136;28;20041;-69
2023/02/05 01:47:56;;;;;;;12.57;5.68;;;-1.00;99.90;;;-2.72;100.00;102854.91;5014188;28;20060;-71
2023/02/05 01:50:47;;;;;;;10.48;5.50;;;-1.00;99.90;;;-2.71;100.00;102865.53;5003632;28;20033;-71
2023/02/05 01:53:23;;;;;;;8.80;5.32;;;-0.90;99.90;;;-2.73;100.00;102862.06;4999941;28;20096;-70
2023/02/05 01:56:19;;;;;;;8.98;5.32;;;-1.00;99.90;;;-2.77;100.00;102855.16;5000410;28;20133;-71
2023/02/05 01:58:52;;;;;;;9.75;5.13;;;-1.00;99.90;;;-2.75;100.00;102842.59;5016359;28;20038;-71
2023/02/05 02:01:18;;;;;;;8.48;4.70;;;-1.00;99.90;;;-2.78;100.00;102838.25;5015386;28;20490;-71
2023/02/05 02:03:46;;;;;;;10.10;5.15;;;-1.00;99.90;;;-2.61;100.00;102836.56;5016614;28;20088;-71
2023/02/05 02:06:12;;;;;;;9.93;5.90;;;-1.00;99.90;;;-2.48;100.00;102826.13;5007740;28;20042;-70
2023/02/05 02:08:38;;;;;;;9.90;5.55;;;-0.80;99.90;;;-2.40;100.00;102815.00;4999625;28;20023;-71
2023/02/05 02:11:08;;;;;;;10.20;5.35;;;-0.70;99.90;;;-2.40;100.00;102809.66;5005239;28;20033;-70
2023/02/05 02:13:38;;;;;;;9.30;4.78;;;-0.70;99.90;;;-2.44;100.00;102813.44;5001303;28;20034;-70
2023/02/05 02:16:05;;;;;;;14.50;5.30;;;-0.70;99.90;;;-2.48;100.00;102818.09;4994249;28;20445;-70
2023/02/05 02:18:36;;;;;;;13.17;5.20;;;-0.70;99.90;;;-2.57;100.00;102814.06;5015509;28;20038;-70
2023/02/05 02:21:32;;;;;;;7.47;4.57;;;-0.80;99.90;;;-2.52;100.00;102817.38;5007068;28;20295;-71
2023/02/05 02:24:26;;;;;;;8.80;4.70;;;-0.80;99.90;;;-2.49;100.00;102811.88;4998385;28;20046;-71
2023/02/05 02:27:16;;;;;;;10.07;4.45;;;-0.80;99.90;;;-2.48;100.00;102818.94;5011590;28;20113;-71
2023/02/05 02:29:56;;;;;;;7.40;4.07;;;-0.80;99.90;;;-2.53;100.00;102815.66;5009774;28;20107;-71
2023/02/05 02:32:41;;;;;;;7.47;4.18;;;-0.80;99.90;;;-2.65;100.00;102806.44;5005477;28;20064;-71
2023/02/05 02:35:43;;;;;;;8.85;4.55;;;-0.90;99.90;;;-2.70;100.00;102796.91;5005001;28;20034;-71
2023/02/05 02:38:32;;;;;;;6.65;4.00;;;-0.90;99.90;;;-2.68;100.00;102795.91;5019336;28;20034;-70
2023/02/05 02:41:50;;;;;;;8.25;4.00;;;-0.90;99.90;;;-2.73;100.00;102791.72;5015258;28;20050;-70
2023/02/05 02:44:35;;;;;;;9.57;4.25;;;-1.00;99.90;;;-2.74;100.00;102790.88;5021744;28;20113;-70
2023/02/05 02:47:12;;;;;;;7.15;4.13;;;-1.00;99.90;;;-2.81;100.00;102776.94;5005215;28;20037;-69
2023/02/05 02:49:55;;;;;;;7.60;4.50;;;-1.00;99.90;;;-2.89;100.00;102774.66;5001037;28;20022;-70
2023/02/05 02:52:25;;;;;;;9.38;4.40;;;-1.10;99.90;;;-2.95;100.00;102774.97;5009915;28;20089;-70
2023/02/05 02:54:59;;;;;;;11.05;4.13;;;-1.20;99.90;;;-3.03;100.00;102778.00;5001759;28;20065;-70
2023/02/05 02:57:28;;;;;;;11.18;4.65;;;-1.20;99.90;;;-3.03;100.00;102767.31;5011769;28;20034;-70
2023/02/05 02:59:59;;;;;;;8.57;4.65;;;-1.30;99.90;;;-2.98;100.00;102758.19;4978030;28;20104;-69
2023/02/05 03:02:30;;;;;;;9.55;4.53;;;-1.20;99.90;;;-2.90;100.00;102772.91;5014414;28;20058;-69
2023/02/05 03:05:02;;;;;;;8.88;4.60;;;-1.20;99.90;;;-2.85;100.00;102772.69;4997199;28;20034;-70
2023/02/05 03:07:44;;;;;;;9.30;5.00;;;-1.10;99.90;;;-2.87;100.00;102790.63;4993503;28;20026;-70
2023/02/05 03:10:24;;;;;;;9.02;4.88;;;-1.10;99.90;;;-2.89;100.00;102768.44;5013911;28;20027;-70
2023/02/05 03:12:50;;;;;;;9.20;5.00;;;-1.10;99.90;;;-2.95;100.00;102768.72;4999022;28;20030;-70
2023/02/05 03:15:16;;;;;;;8.80;5.22;;;-1.10;99.90;;;-2.97;100.00;102781.31;5001530;28;20331;-70
2023/02/05 03:17:42;;;;;;;10.07;5.20;;;-1.20;99.90;;;-3.00;100.00;102777.00;5014350;28;20022;-70
2023/02/05 03:20:26;;;;;;;7.65;4.40;;;-1.30;99.90;;;-2.96;100.00;102786.59;5002725;28;20058;-70
2023/02/05 03:22:55;;;;;;;8.80;4.90;;;-1.30;99.90;;;-2.97;100.00;102774.16;4996964;28;20089;-70
2023/02/05 03:25:22;;;;;;;9.85;4.68;;;-1.30;99.90;;;-2.97;100.00;102789.31;5007695;28;20587;-70
2023/02/05 03:27:53;;;;;;;8.30;4.38;;;-1.30;99.90;;;-3.11;100.00;102777.53;5003697;28;20045;-70
2023/02/05 03:30:20;;;;;;;8.32;4.43;;;-1.40;99.90;;;-3.09;100.00;102780.97;5009158;28;20030;-70
2023/02/05 03:33:16;;;;;;;7.32;4.88;;;-1.40;99.90;;;-3.15;100.00;102783.94;5010458;28;20026;-70
2023/02/05 03:36:00;;;;;;;9.25;4.60;;;-1.40;99.90;;;-3.19;100.00;102774.34;5002317;28;20029;-70
2023/02/05 03:38:52;;;;;;;9.75;5.43;;;-1.40;99.90;;;-3.20;100.00;102769.94;5018319;28;20115;-70
2023/02/05 03:42:15;;;;;;;8.35;5.03;;;-1.40;99.90;;;-3.20;100.00;102772.59;4997653;28;20033;-70
2023/02/05 03:45:11;;;;;;;14.95;5.75;;;-1.40;99.90;;;-3.20;100.00;102769.94;5006568;28;20546;-70
2023/02/05 03:48:06;;;;;;;10.32;5.07;;;-1.40;99.90;;;-3.15;100.00;102775.94;5015019;28;20030;-70
2023/02/05 03:50:54;;;;;;;9.35;5.68;;;-1.40;99.90;;;-3.10;100.00;102775.69;4982738;28;20034;-70
2023/02/05 03:53:32;;;;;;;9.35;5.30;;;-1.30;99.90;;;-3.03;100.00;102771.81;5013521;28;20026;-70
2023/02/05 03:56:24;;;;;;;12.38;5.95;;;-1.20;99.90;;;-2.97;100.00;102762.59;5006534;28;20038;-70
2023/02/05 03:58:55;;;;;;;9.70;5.50;;;-1.20;99.90;;;-2.95;100.00;102745.56;4994652;28;20057;-70
2023/02/05 04:01:24;;;;;;;11.35;6.18;;;-1.10;99.90;;;-2.92;100.00;102736.53;5007965;28;20522;-70
2023/02/05 04:03:50;;;;;;;11.60;5.93;;;-1.10;99.90;;;-2.87;100.00;102736.31;5013906;28;20397;-70
2023/02/05 04:06:16;;;;;;;12.02;6.25;;;-1.10;99.90;;;-2.85;100.00;102743.31;5008615;28;20034;-70
2023/02/05 04:08:43;;;;;;;9.48;5.55;;;-1.00;99.90;;;-2.82;100.00;102734.25;4992153;28;20042;-70
2023/02/05 04:11:10;;;;;;;10.27;5.97;;;-1.00;99.90;;;-2.75;100.00;102731.19;5007426;28;20034;-70
2023/02/05 04:13:35;;;;;;;9.32;5.95;;;-0.90;99.90;;;-2.71;100.00;102734.59;5019471;28;20033;-70
2023/02/05 04:16:02;;;;;;;14.00;6.65;;;-0.90;99.90;;;-2.72;100.00;102729.31;5016753;28;20041;-70
2023/02/05 04:18:28;;;;;;;13.48;6.07;;;-0.90;99.90;;;-2.73;100.00;102727.59;4997511;28;20030;-70
2023/02/05 04:20:55;;;;;;;11.93;6.32;;;-0.90;99.90;;;-2.69;100.00;102731.81;5018340;28;20573;-70
2023/02/05 04:23:23;;;;;;;11.73;6.05;;;-0.90;99.90;;;-2.65;100.00;102733.41;5011359;28;20042;-70
2023/02/05 04:25:54;;;;;;;12.45;6.30;;;-0.80;99.90;;;-2.60;100.00;102736.72;5006197;28;20512;-70
2023/02/05 04:28:25;;;;;;;11.38;5.53;;;-0.80;99.90;;;-2.57;100.00;102743.69;5000714;28;20030;-70
2023/02/05 04:30:51;;;;;;;10.40;5.78;;;-0.80;99.90;;;-2.55;100.00;102729.31;5000632;28;20048;-70
2023/02/05 04:33:17;;;;;;;10.63;5.80;;;-0.70;99.90;;;-2.54;100.00;102732.84;5009854;28;20034;-70
2023/02/05 04:35:42;;;;;;;11.35;6.00;;;-0.70;99.90;;;-2.52;100.00;102725.59;5008910;28;20052;-70
2023/02/05 04:38:08;;;;;;;11.25;5.50;;;-0.70;99.90;;;-2.47;100.00;102726.25;5003187;28;20129;-70
2023/02/05 04:40:34;;;;;;;9.10;5.20;;;-0.70;99.90;;;-2.51;100.00;102727.38;5008174;28;20030;-71
2023/02/05 04:43:00;;;;;;;8.98;5.05;;;-0.70;99.90;;;-2.48;100.00;102738.75;4999819;28;20042;-70
2023/02/05 04:45:29;;;;;;;10.07;5.15;;;-0.70;99.90;;;-2.46;100.00;102730.66;5014064;28;20045;-70
2023/02/05 04:47:56;;;;;;;10.85;5.40;;;-0.60;99.90;;;-2.48;100.00;102721.84;5004230;28;20034;-70
2023/02/05 04:50:22;;;;;;;8.77;5.25;;;-0.60;99.90;;;-2.44;100.00;102728.75;5007689;28;20480;-70
2023/02/05 04:52:48;;;;;;;9.07;5.05;;;-0.60;99.90;;;-2.42;100.00;102723.31;5007223;28;20034;-70
2023/02/05 04:55:14;;;;;;;9.23;4.97;;;-0.60;99.90;;;-2.39;100.00;102717.81;5008818;28;20546;-70
2023/02/05 04:57:40;;;;;;;11.05;5.70;;;-0.60;99.90;;;-2.35;100.00;102722.06;5013900;28;20092;-71
2023/02/05 05:00:06;;;;;;;8.73;5.68;;;-0.50;99.90;;;-2.37;100.00;102710.59;5012554;28;20041;-71
2023/02/05 05:02:32;;;;;;;10.10;5.85;;;-0.50;99.90;;;-2.35;100.00;102706.88;5008588;28;20042;-70
2023/02/05 05:04:58;;;;;;;10.27;5.30;;;-0.50;99.90;;;-2.29;100.00;102711.03;5002880;28;20095;-70
2023/02/05 05:07:23;;;;;;;7.38;4.70;;;-0.50;99.90;;;-2.24;100.00;102716.16;4998355;28;20478;-70
2023/02/05 05:09:49;;;;;;;11.25;5.28;;;-0.50;99.90;;;-2.27;100.00;102709.16;5005256;28;20034;-70
2023/02/05 05:12:15;;;;;;;12.20;5.70;;;-0.40;99.90;;;-2.25;100.00;102717.94;5001133;28;20385;-70
2023/02/05 05:14:40;;;;;;;9.55;5.25;;;-0.40;99.90;;;-2.24;100.00;102719.69;4996746;28;20093;-70
2023/02/05 05:17:06;;;;;;;10.70;6.13;;;-0.40;99.90;;;-2.24;100.00;102725.03;5016941;28;20116;-70
2023/02/05 05:19:32;;;;;;;8.15;4.85;;;-0.40;99.90;;;-2.21;100.00;102710.63;5002754;28;20034;-70
2023/02/05 05:21:58;;;;;;;9.43;5.22;;;-0.40;99.90;;;-2.17;100.00;102713.03;5004385;28;20037;-70
2023/02/05 05:24:24;;;;;;;7.47;5.00;;;-0.40;99.90;;;-2.14;100.00;102705.81;5001740;28;20063;-70
2023/02/05 05:26:49;;;;;;;8.82;5.10;;;-0.30;99.90;;;-2.14;100.00;102708.47;5007369;28;20486;-71
2023/02/05 05:29:15;;;;;;;9.52;5.53;;;-0.30;99.90;;;-2.14;100.00;102704.00;5002159;28;20049;-70
2023/02/05 05:31:41;;;;;;;7.97;4.82;;;-0.30;99.90;;;-2.12;100.00;102701.22;5004913;28;20029;-70
2023/02/05 05:34:07;;;;;;;8.48;4.80;;;-0.30;99.90;;;-2.09;100.00;102703.78;5002779;28;20457;-70
2023/02/05 05:36:33;;;;;;;10.85;4.68;;;-0.30;99.90;;;-2.06;100.00;102696.41;5007297;28;20044;-70
2023/02/05 05:43:45;;;;;;;9.65;4.55;;;-0.20;99.90;;;-2.01;100.00;102696.19;5008212;28;20050;-70
2023/02/05 05:44:28;;;;;;;9.77;4.80;;;-0.20;99.90;;;-1.98;100.00;102696.00;5007081;28;20041;-70
2023/02/05 05:46:54;;;;;;;8.90;4.63;;;-0.20;99.90;;;-1.95;100.00;102687.81;5007878;28;20098;-71
2023/02/05 05:49:19;;;;;;;9.02;4.40;;;-0.20;99.90;;;-1.92;100.00;102684.97;5006790;28;20397;-71
2023/02/05 05:51:45;;;;;;;7.13;4.00;;;-0.10;99.90;;;-1.90;100.00;102685.75;5000851;28;20505;-71
2023/02/05 05:54:11;;;;;;;6.65;4.00;;;-0.10;99.90;;;-1.89;100.00;102675.91;5005587;28;20038;-71
2023/02/05 05:56:37;;;;;;;6.55;4.00;;;-0.10;99.90;;;-1.87;100.00;102682.03;5001701;28;20088;-71
2023/02/05 05:59:04;;;;;;;8.00;3.88;;;-0.10;99.90;;;-1.85;100.00;102679.28;5003775;28;20492;-71
2023/02/05 06:01:30;;;;;;;7.20;3.85;;;-0.10;99.90;;;-1.83;100.00;102664.03;5005924;28;20393;-71
2023/02/05 06:03:55;;;;;;;7.25;3.97;;;0.00;99.90;;;-1.83;100.00;102653.31;5004198;28;20030;-71
2023/02/05 06:06:22;;;;;;;6.60;3.28;;;-0.10;99.90;;;-1.79;100.00;102646.84;5002932;28;20410;-71
2023/02/05 06:08:47;;;;;;;8.70;3.60;;;0.00;99.90;;;-1.79;100.00;102641.47;5004155;28;20073;-71
2023/02/05 06:11:13;;;;;;;7.68;4.03;;;0.00;99.90;;;-1.79;100.00;102634.28;5003289;28;20350;-72
2023/02/05 06:13:40;;;;;;;6.85;3.63;;;0.00;99.90;;;-1.76;100.00;102635.94;5010616;28;20041;-70
2023/02/05 06:16:06;;;;;;;6.55;3.80;;;0.00;99.90;;;-1.76;100.00;102639.47;5001838;28;20118;-71
2023/02/05 06:18:32;;;;;;;7.05;3.58;;;0.10;99.90;;;-1.70;100.00;102630.25;5003937;28;20108;-71
2023/02/05 06:20:58;;;;;;;6.13;3.42;;;0.10;99.90;;;-1.68;100.00;102635.53;5003230;28;20125;-73
2023/02/05 06:23:24;;;;;;;9.73;4.10;;;0.10;99.90;;;-1.64;100.00;102621.00;5010633;28;20103;-70
2023/02/05 06:25:50;;;;;;;5.85;3.25;;;0.10;99.90;;;-1.62;100.00;102611.91;5003985;28;20108;-69
2023/02/05 06:28:15;;;;;;;7.28;3.58;;;0.20;99.90;;;-1.59;100.00;102584.13;5001175;28;20144;-70
2023/02/05 06:30:41;;;;;;;6.63;3.20;;;0.20;99.90;;;-1.55;100.00;102582.13;5008690;28;20449;-70
2023/02/05 06:33:07;;;;;;;7.07;3.90;;;0.20;99.90;;;-1.54;100.00;102595.41;5001974;28;20034;-70
2023/02/05 06:35:32;;;;;;;8.40;3.38;;;0.30;99.90;;;-1.50;100.00;102623.72;5001535;28;20034;-71
2023/02/05 06:37:58;;;;;;;6.82;3.55;;;0.30;99.90;;;-1.49;100.00;102621.94;5004107;28;20030;-71
2023/02/05 06:40:26;;;;;;;6.47;3.38;;;0.30;99.90;;;-1.46;100.00;102625.31;5006096;28;20046;-71
2023/02/05 06:42:52;;;;;;;6.22;3.03;;;0.30;99.90;;;-1.49;100.00;102621.94;5006263;28;20076;-71
2023/02/05 06:45:18;;;;;;;6.25;2.92;;;0.30;99.90;;;-1.48;100.00;102637.03;4999677;28;20050;-71
2023/02/05 06:47:44;;;;;;;6.28;3.17;;;0.30;99.90;;;-1.41;100.00;102650.94;5000186;28;20112;-71
2023/02/05 06:50:10;;;;;;;6.28;2.53;;;0.30;99.90;;;-1.42;100.00;102638.50;4994777;28;20335;-71
2023/02/05 06:52:37;;;;;;;5.90;2.80;;;0.30;99.90;;;-1.41;100.00;102645.59;5010030;28;20045;-71
2023/02/05 06:55:03;;;;;;;5.78;2.78;;;0.30;99.90;;;-1.40;100.00;102644.63;5001989;28;20721;-70
2023/02/05 06:57:30;;;;;;;6.45;3.22;;;0.30;99.90;;;-1.36;100.00;102633.63;5011319;28;20077;-72
2023/02/05 06:59:57;;;;;;;6.22;2.97;;;0.30;99.90;;;-1.37;100.00;102639.94;5003079;28;20050;-72
2023/02/05 07:02:23;;;;;;;4.60;2.70;;;0.30;99.90;;;-1.43;100.00;102640.31;5000373;28;20113;-72
2023/02/05 07:04:48;;;;;;;5.32;3.05;;;0.30;99.90;;;-1.48;100.00;102631.69;5004478;28;20469;-71
2023/02/05 07:07:16;;;;;;;5.35;2.88;;;0.20;99.90;;;-1.54;100.00;102627.53;4999371;28;20224;-72
2023/02/05 07:09:42;;;;;;;8.80;4.07;;;0.20;99.90;;;-1.56;100.00;102628.59;5004514;28;20113;-71
2023/02/05 07:12:08;;;;;;;7.68;3.40;;;0.20;99.90;;;-1.56;100.00;102628.59;5001269;28;20073;-71
2023/02/05 07:14:39;;;;;;;7.65;3.15;;;0.20;99.90;;;-1.57;100.00;102632.22;5002768;28;20442;-72
2023/02/05 07:17:06;;;;;;;6.65;3.78;;;0.20;99.90;;;-1.54;100.00;102626.69;5004857;28;20470;-71
2023/02/05 07:19:33;;;;;;;7.10;3.58;;;0.20;99.90;;;-1.51;100.00;102627.38;4997956;28;20380;-72
2023/02/05 07:21:59;;;;;;;5.93;3.10;;;0.30;99.90;;;-1.46;100.00;102629.78;5002931;28;20037;-71
2023/02/05 07:24:24;;;;;;;6.18;3.28;;;0.30;99.90;;;-1.46;100.00;102644.06;5002260;28;20037;-71
2023/02/05 07:26:50;;;;;;;7.32;3.60;;;0.30;99.90;;;-1.45;100.00;102644.91;5009058;28;20500;-72
2023/02/05 07:29:16;;;;;;;6.38;3.72;;;0.30;99.90;;;-1.45;100.00;102642.22;5006960;28;20034;-71
2023/02/05 07:31:41;;;;;;;6.30;3.38;;;0.30;99.90;;;-1.45;100.00;102629.72;5014079;28;20370;-71
2023/02/05 07:34:07;;;;;;;6.07;3.25;;;0.30;99.90;;;-1.47;100.00;102626.22;5018732;28;20038;-71
2023/02/05 07:36:33;;;;;;;7.05;3.55;;;0.30;99.90;;;-1.39;100.00;102625.78;5003129;28;20046;-72
2023/02/05 07:38:59;;;;;;;8.88;3.80;;;0.40;99.90;;;-1.31;100.00;102631.59;5003549;28;20052;-73
2023/02/05 07:41:27;;;;;;;6.65;3.95;;;0.40;99.90;;;-1.30;100.00;102619.03;5000800;28;20031;-71
2023/02/05 07:43:54;;;;;;;7.53;4.03;;;0.50;99.90;;;-1.36;100.00;102606.84;5005143;28;20081;-71
2023/02/05 07:46:21;;;;;;;6.30;3.55;;;0.50;99.90;;;-1.36;100.00;102620.25;5006083;28;20050;-70
2023/02/05 07:48:47;;;;;;;7.78;4.28;;;0.40;99.90;;;-1.31;100.00;102620.88;5006245;28;20044;-73
2023/02/05 07:51:20;;;;;;;8.95;3.95;;;0.50;99.90;;;-1.23;100.00;102620.41;5010928;28;20036;-71
2023/02/05 07:53:47;;;;;;;6.28;3.63;;;0.50;99.90;;;-1.16;100.00;102612.88;5003176;28;20085;-71
2023/02/05 07:56:14;;;;;;;6.07;3.63;;;0.60;99.90;;;-1.08;100.00;102615.94;4992592;28;20062;-72
2023/02/05 07:58:41;;;;;;;5.40;3.55;;;0.70;99.90;;;-0.98;100.00;102607.38;5000739;28;20042;-73
2023/02/05 08:01:07;;;;;;;6.53;3.60;;;0.80;99.90;;;-0.84;100.00;102607.38;5005746;28;20034;-72
2023/02/05 08:03:33;;;;;;;8.48;4.30;;;0.90;99.90;;;-0.78;100.00;102607.03;4991600;28;20038;-72
2023/02/05 08:06:07;;;;;;;7.03;4.05;;;1.00;99.90;;;-0.68;100.00;102607.28;5005808;28;20038;-72
2023/02/05 08:08:33;;;;;;;8.23;4.25;;;1.00;99.90;;;-0.67;100.00;102608.16;5001686;28;20437;-71
2023/02/05 08:11:02;;;;;;;7.47;4.03;;;1.10;99.90;;;-0.74;100.00;102610.34;5003044;28;20120;-71
2023/02/05 08:13:29;;;;;;;8.32;4.00;;;1.10;99.90;;;-0.78;100.00;102604.34;4996989;28;20173;-72
2023/02/05 08:15:54;;;;;;;5.35;3.35;;;1.10;99.90;;;-0.80;100.00;102600.03;5001532;28;20400;-71
2023/02/05 08:18:21;;;;;;;7.03;3.60;;;1.00;99.90;;;-0.75;100.00;102597.91;4994254;28;20034;-72
2023/02/05 08:20:46;;;;;;;5.25;3.28;;;1.10;99.90;;;-0.77;100.00;102595.34;5003465;28;20513;-73
2023/02/05 08:23:12;;;;;;;5.03;3.22;;;1.10;99.90;;;-0.70;100.00;102608.34;5009177;28;20037;-72
2023/02/05 08:25:38;;;;;;;7.07;3.42;;;1.10;99.90;;;-0.68;100.00;102609.13;5009815;28;20029;-71
2023/02/05 08:28:04;;;;;;;7.72;4.38;;;1.10;99.90;;;-0.63;100.00;102609.69;5004536;28;20072;-73
2023/02/05 08:30:30;;;;;;;8.55;4.80;;;1.20;99.90;;;-0.66;100.00;102609.88;5002770;28;20041;-72
2023/02/05 08:32:56;;;;;;;7.13;4.63;;;1.20;99.90;;;-0.67;100.00;102610.84;5002152;28;20069;-72
2023/02/05 08:35:22;;;;;;;6.53;4.15;;;1.10;99.90;;;-0.69;100.00;102618.13;5000898;28;20048;-71
2023/02/05 08:37:47;;;;;;;5.32;3.50;;;1.10;99.90;;;-0.68;100.00;102619.84;5003775;28;20050;-71
2023/02/05 08:40:13;;;;;;;7.50;3.95;;;1.10;99.90;;;-0.63;100.00;102617.75;5004169;28;20077;-71
2023/02/05 08:42:39;;;;;;;7.70;3.53;;;1.10;99.90;;;-0.57;100.00;102619.19;5002282;28;20038;-71
2023/02/05 08:45:07;;;;;;;7.03;3.70;;;1.20;99.90;;;-0.52;100.00;102615.28;5002634;28;20477;-71
2023/02/05 08:47:37;;;;;;;8.13;4.18;;;1.20;99.90;;;-0.42;100.00;102606.66;5003595;28;20076;-71
2023/02/05 08:50:04;;;;;;;7.25;3.75;;;1.30;99.90;;;-0.33;100.00;102614.09;5002600;28;20056;-71
2023/02/05 08:52:30;;;;;;;5.10;3.17;;;1.40;99.90;;;-0.12;100.00;102617.25;5002105;28;20041;-71
2023/02/05 08:54:56;;;;;;;6.65;3.45;;;1.50;99.90;;;-0.06;100.00;102610.63;4999212;28;20042;-72
2023/02/05 08:57:28;;;;;;;5.45;3.22;;;1.60;99.90;;;0.06;100.00;102601.78;5002881;28;20092;-72
2023/02/05 08:59:55;;;;;;;6.32;3.17;;;1.70;99.90;;;0.15;100.00;102597.66;5000424;28;20046;-72
2023/02/05 09:02:21;;;;;;;6.80;3.42;;;1.80;99.90;;;0.26;100.00;102603.16;5005863;28;20367;-70
2023/02/05 09:04:47;;;;;;;6.47;3.10;;;1.90;99.90;;;0.34;100.00;102599.97;5009831;28;20046;-72
2023/02/05 09:07:14;;;;;;;5.95;3.13;;;2.00;99.90;;;0.43;100.00;102596.69;5018952;28;20041;-72
2023/02/05 09:09:40;;;;;;;6.97;3.42;;;2.10;99.90;;;0.41;100.00;102597.75;5008158;28;20061;-72
2023/02/05 09:12:06;;;;;;;7.60;3.20;;;2.10;99.90;;;0.37;100.00;102602.47;5022058;28;20034;-72
2023/02/05 09:14:35;;;;;;;6.68;3.05;;;2.10;99.90;;;0.35;100.00;102604.38;5005293;28;20087;-72
2023/02/05 09:17:13;;;;;;;6.00;3.10;;;2.20;99.90;;;0.40;100.00;102602.25;5005194;28;20112;-71
2023/02/05 09:19:40;;;;;;;8.20;3.35;;;2.20;99.90;;;0.42;100.00;102608.38;5009362;28;20041;-72
2023/02/05 09:22:07;;;;;;;7.57;3.45;;;2.20;99.90;;;0.43;100.00;102610.09;5011829;28;20054;-72
2023/02/05 09:24:33;;;;;;;5.63;3.00;;;2.20;99.90;;;0.46;100.00;102601.00;5007381;28;20124;-72
2023/02/05 09:26:59;;;;;;;6.13;3.22;;;2.20;99.90;;;0.49;100.00;102613.34;5012452;28;20091;-72
2023/02/05 09:29:26;;;;;;;6.43;3.25;;;2.20;99.90;;;0.55;100.00;102610.28;5000108;28;20038;-72
2023/02/05 09:31:52;;;;;;;5.93;3.08;;;2.30;99.90;;;0.66;100.00;102609.53;5005896;28;20030;-73
2023/02/05 09:34:18;;;;;;;6.18;2.90;;;2.40;99.90;;;0.78;100.00;102610.53;5013228;28;20715;-74
2023/02/05 09:36:44;;;;;;;6.35;2.65;;;2.50;99.90;;;0.96;100.00;102598.53;5006596;28;20053;-72
2023/02/05 09:39:11;;;;;;;4.85;2.72;;;2.60;99.90;;;0.94;100.00;102597.78;5003405;28;20065;-72
2023/02/05 09:41:58;;;;;;;5.53;2.95;;;2.60;99.90;;;0.96;100.00;102600.38;5001566;28;20397;-74
2023/02/05 09:45:15;;;;;;;7.47;3.25;;;2.60;99.90;;;0.98;100.00;102588.53;5011677;28;20540;-74
2023/02/05 09:48:23;;;;;;;6.82;2.80;;;2.70;99.90;;;0.86;100.00;102600.13;5010265;28;20049;-74
2023/02/05 09:50:49;;;;;;;6.38;3.10;;;2.60;99.90;;;0.80;100.00;102601.41;5002972;28;20504;-73
2023/02/05 09:53:21;;;;;;;6.07;3.15;;;2.60;99.90;;;0.83;100.00;102605.72;5008104;28;20034;-73
2023/02/05 09:55:48;;;;;;;6.53;3.50;;;2.60;99.90;;;0.90;100.00;102615.06;4999457;28;20057;-74
2023/02/05 09:58:36;;;;;;;7.72;3.20;;;2.60;99.90;;;0.84;100.00;102620.88;5005048;28;20876;-75
2023/02/05 10:01:43;;;;;;;6.13;2.90;;;2.60;99.90;;;0.82;100.00;102620.13;5000180;28;20054;-75
2023/02/05 10:04:10;;;;;;;5.53;3.03;;;2.60;99.90;;;0.74;100.00;102619.75;4998892;28;20298;-75
2023/02/05 10:06:57;;;;;;;5.28;3.10;;;2.60;99.90;;;0.71;100.00;102612.78;5004552;28;20582;-74
2023/02/05 10:09:59;;;;;;;6.57;3.38;;;2.50;99.90;;;0.77;100.00;102624.91;5003348;28;20041;-76
2023/02/05 10:12:54;;;;;;;9.25;4.47;;;2.50;99.90;;;0.80;100.00;102624.75;5002555;28;20052;-75
2023/02/05 10:16:13;;;;;;;11.73;4.90;;;2.50;99.90;;;0.82;100.00;102612.06;4998500;28;20096;-76
2023/02/05 10:18:56;;;;;;;7.70;4.47;;;2.60;99.90;;;0.93;100.00;102620.25;5015295;28;20050;-75
2023/02/05 10:21:38;;;;;;;5.88;3.38;;;2.60;99.90;;;1.05;100.00;102617.66;5004125;28;20042;-77
2023/02/05 10:24:22;;;;;;;8.77;3.75;;;2.80;99.90;;;1.11;100.00;102617.25;4990812;28;20057;-75
2023/02/05 10:26:56;;;;;;;6.88;3.05;;;2.80;99.90;;;1.25;100.00;102609.09;5000940;28;20382;-76